Time;durP1;ratioP1;P1;durP2;ratioP2;P2;SDS_P1;SDS_P2;PMS_P1;PMS_P2;Temp;Humidity;BMP_temperature;BMP_pressure;BME280_temperature;BME280_humidity;BME280_pressure;Samples;Min_cycle;Max_cycle;Signal;HPM_P1;HPM_P2
2022/05/02 00:00:54;;;;;;;5.10;3.75;;;14.90;57.00;;;;;;4939656;29;20066;-76
2022/05/02 00:03:20;;;;;;;5.60;4.15;;;14.90;57.00;;;;;;4956132;29;20031;-77
2022/05/02 00:05:46;;;;;;;5.72;4.07;;;14.90;57.00;;;;;;4940424;29;20025;-78
2022/05/02 00:08:11;;;;;;;5.07;3.90;;;14.90;57.70;;;;;;4924594;29;20042;-77
2022/05/02 00:10:38;;;;;;;5.88;4.22;;;14.90;57.10;;;;;;4957817;28;20035;-76
2022/05/02 00:13:06;;;;;;;5.15;3.97;;;14.80;57.10;;;;;;4956405;29;20547;-76
2022/05/02 00:15:32;;;;;;;4.88;3.58;;;14.80;57.10;;;;;;4940159;29;20145;-77
2022/05/02 00:17:59;;;;;;;5.57;4.05;;;14.80;57.20;;;;;;4956589;29;20043;-77
2022/05/02 00:20:36;;;;;;;5.38;4.07;;;14.70;57.10;;;;;;4940450;29;20047;-78
2022/05/02 00:23:06;;;;;;;5.10;3.47;;;14.70;57.20;;;;;;4956091;29;20035;-76
2022/05/02 00:25:32;;;;;;;5.18;3.75;;;14.70;57.20;;;;;;4940252;29;20023;-76
2022/05/02 00:27:58;;;;;;;4.63;3.55;;;14.60;57.20;;;;;;4955925;29;20039;-76
2022/05/02 00:30:25;;;;;;;4.85;3.80;;;14.60;57.90;;;;;;4955971;29;20047;-76
2022/05/02 00:32:51;;;;;;;6.82;3.83;;;14.60;57.30;;;;;;4939918;29;20043;-76
2022/05/02 00:35:17;;;;;;;4.85;3.47;;;14.60;57.40;;;;;;4955600;29;20032;-81
2022/05/02 00:37:44;;;;;;;5.22;3.88;;;14.50;57.30;;;;;;4956041;29;20050;-76
2022/05/02 00:40:12;;;;;;;5.32;3.78;;;14.50;57.40;;;;;;4956022;29;20079;-76
2022/05/02 00:42:39;;;;;;;4.75;3.45;;;14.50;57.40;;;;;;4940540;29;20041;-76
2022/05/02 00:45:09;;;;;;;5.38;3.95;;;14.40;57.40;;;;;;4923944;29;20032;-81
2022/05/02 00:47:36;;;;;;;5.38;3.65;;;14.40;57.40;;;;;;4956388;29;20114;-76
2022/05/02 00:50:07;;;;;;;5.47;3.97;;;14.40;57.40;;;;;;4956189;29;20074;-76
2022/05/02 00:52:33;;;;;;;5.47;4.07;;;14.30;57.50;;;;;;4956350;29;20468;-76
2022/05/02 00:55:02;;;;;;;5.57;4.00;;;14.30;57.50;;;;;;4939779;29;20027;-77
2022/05/02 00:57:29;;;;;;;5.50;3.88;;;14.30;57.50;;;;;;4955478;29;20476;-77
2022/05/02 00:59:55;;;;;;;5.43;3.78;;;14.20;57.50;;;;;;4939677;29;20042;-76
2022/05/02 01:02:21;;;;;;;5.68;4.05;;;14.20;57.50;;;;;;4924472;29;20027;-76
2022/05/02 01:04:47;;;;;;;5.40;4.00;;;14.20;57.50;;;;;;4939456;29;20031;-76
2022/05/02 01:07:18;;;;;;;5.55;4.13;;;14.10;57.50;;;;;;4939397;29;20036;-76
2022/05/02 01:09:47;;;;;;;4.93;3.78;;;14.10;57.50;;;;;;4956218;29;20050;-77
2022/05/02 01:12:21;;;;;;;5.60;4.03;;;14.00;57.50;;;;;;4955879;28;20030;-76
2022/05/02 01:14:50;;;;;;;4.78;3.33;;;14.10;57.60;;;;;;4955290;29;20043;-76
2022/05/02 01:17:16;;;;;;;5.07;3.97;;;14.00;57.50;;;;;;4939111;29;20041;-76
2022/05/02 01:19:43;;;;;;;6.00;4.05;;;14.00;57.60;;;;;;4939109;29;20042;-76
2022/05/02 01:22:09;;;;;;;5.85;3.58;;;13.90;57.60;;;;;;4939003;29;20031;-77
2022/05/02 01:24:36;;;;;;;5.25;3.83;;;13.90;57.50;;;;;;4955086;29;20081;-76
2022/05/02 01:27:03;;;;;;;5.28;3.83;;;13.90;57.60;;;;;;4939654;29;20396;-77
2022/05/02 01:29:31;;;;;;;6.03;3.75;;;13.80;57.60;;;;;;4956089;28;20155;-76
2022/05/02 01:31:57;;;;;;;4.85;3.70;;;13.80;57.60;;;;;;4954911;29;20037;-76
2022/05/02 01:34:23;;;;;;;5.45;3.97;;;13.80;57.60;;;;;;4923800;29;20040;-76
2022/05/02 01:36:49;;;;;;;5.88;3.88;;;13.80;57.60;;;;;;4955008;29;20114;-78
2022/05/02 01:39:15;;;;;;;4.50;3.65;;;13.70;57.60;;;;;;4923005;29;20036;-79
2022/05/02 01:41:41;;;;;;;5.03;3.88;;;13.70;57.70;;;;;;4938889;29;20059;-76
2022/05/02 01:44:07;;;;;;;5.55;4.00;;;13.60;57.70;;;;;;4954379;29;20101;-77
2022/05/02 01:46:32;;;;;;;5.13;3.92;;;13.60;57.70;;;;;;4938884;29;20094;-77
2022/05/02 01:48:59;;;;;;;5.18;3.50;;;13.60;57.70;;;;;;4955286;29;20066;-76
2022/05/02 01:51:24;;;;;;;4.78;3.42;;;13.50;57.70;;;;;;4938596;29;20032;-77
2022/05/02 01:53:51;;;;;;;5.43;3.85;;;13.50;57.70;;;;;;4939134;29;20475;-76
2022/05/02 01:56:17;;;;;;;5.22;3.80;;;13.50;57.70;;;;;;4954117;29;20032;-77
2022/05/02 01:58:42;;;;;;;5.95;4.28;;;13.50;57.80;;;;;;4938314;29;20551;-77
2022/05/02 02:01:08;;;;;;;6.00;3.92;;;13.50;57.80;;;;;;4938526;29;20031;-76
2022/05/02 02:03:34;;;;;;;5.65;4.30;;;13.40;57.80;;;;;;4954878;29;20543;-76
2022/05/02 02:06:00;;;;;;;6.93;3.78;;;13.40;57.80;;;;;;4938096;29;20028;-76
2022/05/02 02:08:32;;;;;;;4.90;3.38;;;13.40;57.90;;;;;;4922153;29;20392;-77
2022/05/02 02:11:00;;;;;;;5.28;3.67;;;13.40;57.90;;;;;;4955696;28;20054;-77
2022/05/02 02:13:26;;;;;;;5.30;3.83;;;13.30;57.80;;;;;;4953852;29;20027;-76
2022/05/02 02:15:52;;;;;;;5.00;3.97;;;13.30;57.90;;;;;;4937789;29;20066;-76
2022/05/02 02:18:18;;;;;;;5.30;3.72;;;13.30;57.90;;;;;;4937936;29;20476;-76
2022/05/02 02:20:45;;;;;;;5.10;3.78;;;13.30;57.90;;;;;;4954205;29;20040;-77
2022/05/02 02:23:12;;;;;;;5.15;3.67;;;13.30;58.00;;;;;;4938330;28;20031;-79
2022/05/02 02:25:38;;;;;;;5.78;3.67;;;13.20;57.90;;;;;;4937725;29;20460;-77
2022/05/02 02:28:04;;;;;;;5.53;3.47;;;13.20;57.90;;;;;;4954888;29;20034;-78
2022/05/02 02:30:30;;;;;;;5.38;4.03;;;13.20;58.00;;;;;;4937768;29;20038;-76
2022/05/02 02:33:00;;;;;;;5.53;4.15;;;13.20;58.00;;;;;;4953779;29;20020;-77
2022/05/02 02:35:27;;;;;;;4.80;3.75;;;13.10;58.00;;;;;;4938620;29;20380;-76
2022/05/02 02:37:53;;;;;;;5.97;4.50;;;13.10;58.00;;;;;;4955067;28;20024;-76
2022/05/02 02:40:19;;;;;;;4.95;3.55;;;13.10;58.00;;;;;;4954758;28;20369;-82
2022/05/02 02:42:45;;;;;;;5.93;4.20;;;13.00;58.00;;;;;;4953803;29;20466;-76
2022/05/02 02:45:11;;;;;;;5.13;3.85;;;13.00;58.10;;;;;;4937677;29;20056;-76
2022/05/02 02:47:38;;;;;;;5.47;4.20;;;13.00;58.10;;;;;;4937978;29;20030;-76
2022/05/02 02:50:04;;;;;;;6.20;4.18;;;13.00;58.10;;;;;;4953827;29;20081;-79
2022/05/02 02:52:30;;;;;;;5.32;3.95;;;13.00;58.20;;;;;;4937960;29;20027;-76
2022/05/02 02:54:56;;;;;;;5.70;4.10;;;13.00;58.20;;;;;;4953927;29;20039;-76
2022/05/02 02:57:22;;;;;;;5.35;3.80;;;13.00;58.20;;;;;;4937590;29;20043;-76
2022/05/02 02:59:48;;;;;;;5.13;3.80;;;12.90;58.20;;;;;;4922134;29;20039;-76
2022/05/02 03:02:14;;;;;;;4.85;3.80;;;12.90;58.20;;;;;;4955010;28;20027;-77
2022/05/02 03:07:26;;;;;;;5.47;3.80;;;12.90;58.30;;;;;;4953803;29;20040;-76
2022/05/02 03:09:52;;;;;;;5.35;3.75;;;12.80;58.20;;;;;;4937490;29;20775;-76
2022/05/02 03:12:19;;;;;;;6.00;4.20;;;12.80;58.30;;;;;;4937781;29;20023;-76
2022/05/02 03:14:45;;;;;;;5.28;4.13;;;12.80;58.30;;;;;;4953461;29;20484;-78
2022/05/02 03:17:11;;;;;;;5.35;4.07;;;12.80;58.30;;;;;;4937749;29;20043;-77
2022/05/02 03:19:37;;;;;;;5.55;4.03;;;12.70;58.30;;;;;;4937238;29;20066;-78
2022/05/02 03:22:04;;;;;;;6.13;4.03;;;12.70;58.30;;;;;;4954004;29;20038;-77
2022/05/02 03:24:30;;;;;;;5.78;4.38;;;12.70;58.30;;;;;;4953360;29;20053;-77
2022/05/02 03:26:56;;;;;;;5.47;3.97;;;12.70;58.30;;;;;;4953732;29;20063;-76
2022/05/02 03:29:21;;;;;;;5.28;4.05;;;12.70;58.30;;;;;;4954411;28;20036;-76
2022/05/02 03:31:47;;;;;;;5.50;4.05;;;12.60;58.30;;;;;;4938156;29;20035;-76
2022/05/02 03:34:13;;;;;;;5.55;4.20;;;12.60;58.30;;;;;;4922050;29;20031;-76
2022/05/02 03:36:39;;;;;;;5.70;3.78;;;12.60;58.30;;;;;;4924779;29;20074;-76
2022/05/02 03:39:04;;;;;;;4.57;3.80;;;12.60;58.30;;;;;;4925206;29;20449;-76
2022/05/02 03:41:31;;;;;;;4.80;3.90;;;12.50;58.30;;;;;;4941083;29;20062;-77
2022/05/02 03:43:57;;;;;;;4.85;3.65;;;12.50;58.30;;;;;;4940992;29;20027;-75
2022/05/02 03:46:23;;;;;;;6.22;4.38;;;12.50;58.40;;;;;;4958286;28;20039;-76
2022/05/02 03:48:49;;;;;;;6.10;4.55;;;12.50;59.00;;;;;;4957031;29;20035;-76
2022/05/02 03:51:14;;;;;;;6.13;4.50;;;12.40;58.40;;;;;;4956726;29;20032;-76
2022/05/02 03:53:40;;;;;;;6.43;4.50;;;12.40;58.40;;;;;;4957186;29;20182;-76
2022/05/02 03:56:06;;;;;;;5.10;3.78;;;12.40;58.40;;;;;;4925028;29;20476;-78
2022/05/02 03:58:32;;;;;;;4.70;4.00;;;12.40;58.40;;;;;;4957005;29;20034;-77
2022/05/02 04:00:58;;;;;;;5.97;4.25;;;12.30;58.40;;;;;;4957581;28;20480;-76
2022/05/02 04:03:23;;;;;;;6.18;4.30;;;12.30;58.40;;;;;;4956796;29;20356;-76
2022/05/02 04:05:49;;;;;;;6.43;4.45;;;12.30;58.50;;;;;;4941225;29;20451;-80
2022/05/02 04:08:15;;;;;;;5.97;4.50;;;12.30;58.50;;;;;;4956582;29;20034;-77
2022/05/02 04:10:41;;;;;;;5.45;4.10;;;12.30;58.50;;;;;;4956129;29;20122;-76
2022/05/02 04:13:07;;;;;;;6.50;4.63;;;12.30;58.50;;;;;;4956693;29;20122;-76
2022/05/02 04:15:34;;;;;;;5.78;4.13;;;12.20;58.50;;;;;;4940403;29;20055;-76
2022/05/02 04:18:00;;;;;;;5.60;4.18;;;12.20;58.50;;;;;;4940272;29;20391;-76
2022/05/02 04:20:26;;;;;;;7.10;4.38;;;12.20;58.60;;;;;;4940177;29;20038;-77
2022/05/02 04:22:52;;;;;;;5.18;3.97;;;12.20;58.80;;;;;;4956043;29;20044;-76
2022/05/02 04:25:18;;;;;;;6.50;5.07;;;12.10;58.60;;;;;;4956954;29;20046;-78
2022/05/02 04:27:43;;;;;;;5.28;4.03;;;12.10;58.60;;;;;;4940157;29;20028;-76
2022/05/02 04:30:11;;;;;;;6.22;4.38;;;12.10;58.60;;;;;;4940172;29;20478;-76
2022/05/02 04:32:37;;;;;;;5.82;4.30;;;12.10;58.70;;;;;;4924209;29;20028;-76
2022/05/02 04:35:04;;;;;;;6.45;4.78;;;12.00;58.60;;;;;;4955830;29;20035;-76
2022/05/02 04:37:30;;;;;;;5.18;4.07;;;12.00;58.70;;;;;;4939943;29;20058;-76
2022/05/02 04:39:55;;;;;;;6.43;4.45;;;12.00;58.70;;;;;;4939890;29;20028;-76
2022/05/02 04:42:21;;;;;;;5.30;4.18;;;12.00;58.70;;;;;;4957720;29;20437;-75
2022/05/02 04:44:47;;;;;;;6.93;5.03;;;12.00;58.70;;;;;;4956714;28;20023;-75
2022/05/02 04:47:13;;;;;;;5.30;4.03;;;11.90;58.70;;;;;;4954905;28;20031;-76
2022/05/02 04:49:39;;;;;;;5.68;4.25;;;11.90;58.70;;;;;;4955510;29;20033;-78
2022/05/02 04:52:05;;;;;;;6.35;4.50;;;11.90;58.80;;;;;;4955452;29;20387;-78
2022/05/02 04:54:30;;;;;;;6.10;4.47;;;11.90;58.80;;;;;;4908285;29;20031;-79
2022/05/02 04:56:56;;;;;;;5.53;4.13;;;11.90;58.80;;;;;;4923695;29;20094;-78
2022/05/02 04:59:22;;;;;;;5.85;4.28;;;11.80;58.80;;;;;;4924067;29;20497;-76
2022/05/02 05:01:48;;;;;;;5.40;4.10;;;11.80;58.80;;;;;;4939406;29;20035;-80
2022/05/02 05:04:14;;;;;;;6.00;4.40;;;11.80;58.90;;;;;;4956412;28;20031;-78
2022/05/02 05:06:40;;;;;;;6.47;4.70;;;11.80;58.90;;;;;;4939862;29;20102;-76
2022/05/02 05:09:05;;;;;;;5.93;4.25;;;11.80;59.00;;;;;;4939416;29;20031;-76
2022/05/02 05:11:40;;;;;;;4.90;3.70;;;11.80;59.00;;;;;;4923445;29;20050;-78
2022/05/02 05:17:46;;;;;;;5.45;4.18;;;11.70;59.00;;;;;;4955160;29;20166;-76
2022/05/02 05:20:48;;;;;;;5.65;4.25;;;11.70;59.10;;;;;;4954204;29;20058;-78
2022/05/02 05:23:23;;;;;;;5.57;4.18;;;11.70;59.20;;;;;;4955193;29;20050;-77
2022/05/02 05:26:40;;;;;;;5.28;3.85;;;11.60;59.10;;;;;;4939295;29;20035;-76
2022/05/02 05:29:13;;;;;;;5.20;3.92;;;11.60;59.30;;;;;;4896870;29;20051;-76
2022/05/02 05:31:41;;;;;;;5.70;4.40;;;11.60;59.20;;;;;;4954878;29;20059;-76
2022/05/02 05:34:20;;;;;;;5.25;4.28;;;11.60;59.30;;;;;;4955441;29;20027;-76
2022/05/02 05:37:31;;;;;;;6.65;4.07;;;11.50;59.30;;;;;;4939011;29;20034;-76
2022/05/02 05:40:25;;;;;;;6.32;4.20;;;11.60;59.50;;;;;;4928458;28;20047;-75
2022/05/02 05:43:25;;;;;;;5.75;4.50;;;11.50;59.30;;;;;;4954851;29;20086;-76
2022/05/02 05:46:25;;;;;;;5.25;4.20;;;11.50;59.50;;;;;;4954532;29;20038;-77
2022/05/02 05:49:09;;;;;;;5.40;4.20;;;11.50;59.50;;;;;;4954681;29;20050;-76
2022/05/02 05:52:24;;;;;;;6.13;4.30;;;11.50;59.50;;;;;;4939053;29;20031;-78
2022/05/02 05:55:07;;;;;;;5.57;4.10;;;11.50;59.60;;;;;;4921943;29;20035;-76
2022/05/02 05:57:37;;;;;;;5.75;4.10;;;11.50;59.50;;;;;;4954212;29;20043;-79
2022/05/02 06:00:06;;;;;;;5.28;3.88;;;11.50;59.50;;;;;;4937565;29;20113;-76
2022/05/02 06:02:51;;;;;;;5.40;4.05;;;11.50;59.60;;;;;;4954460;29;20039;-76
2022/05/02 06:05:17;;;;;;;;;;;11.50;59.70;;;;;;4939147;29;20039;-75
2022/05/02 06:07:46;;;;;;;5.30;3.72;;;11.50;59.50;;;;;;4954549;29;20343;-79
2022/05/02 06:10:14;;;;;;;5.43;4.07;;;11.50;59.50;;;;;;4938273;29;20046;-76
2022/05/02 06:12:42;;;;;;;5.10;3.95;;;11.50;59.70;;;;;;4938419;29;20056;-81
2022/05/02 06:20:45;;;;;;;5.75;3.92;;;11.50;59.70;;;;;;4954162;29;20032;-77
2022/05/02 06:23:13;;;;;;;5.57;4.07;;;11.50;59.70;;;;;;4937874;29;20051;-75
2022/05/02 06:25:40;;;;;;;5.30;3.63;;;11.50;59.80;;;;;;4953964;29;20111;-76
2022/05/02 06:28:07;;;;;;;6.40;4.75;;;11.50;59.80;;;;;;4938753;29;20448;-77
2022/05/02 06:30:41;;;;;;;5.38;4.05;;;11.50;59.80;;;;;;4953983;29;20039;-74
2022/05/02 06:33:11;;;;;;;6.30;4.10;;;11.60;59.90;;;;;;4954306;29;20391;-77
2022/05/02 06:36:06;;;;;;;5.22;4.05;;;11.60;59.90;;;;;;4954090;29;20376;-76
2022/05/02 06:38:56;;;;;;;5.97;4.55;;;11.60;60.00;;;;;;4930205;28;20062;-76
2022/05/02 06:41:30;;;;;;;4.97;3.80;;;11.60;60.00;;;;;;4954318;29;20036;-79
2022/05/02 06:44:04;;;;;;;5.13;4.00;;;11.60;59.90;;;;;;4954791;29;20042;-77
2022/05/02 06:46:37;;;;;;;6.10;4.18;;;11.60;59.80;;;;;;4938224;29;20111;-76
2022/05/02 06:49:08;;;;;;;4.78;3.60;;;11.70;59.90;;;;;;4938304;29;20471;-76
2022/05/02 06:51:42;;;;;;;5.80;4.00;;;11.70;59.90;;;;;;4938393;29;20039;-77
2022/05/02 06:54:17;;;;;;;5.43;4.20;;;11.70;60.00;;;;;;4954229;29;20040;-76
2022/05/02 06:57:05;;;;;;;5.28;3.92;;;11.70;59.90;;;;;;4953914;29;20115;-77
2022/05/02 06:59:42;;;;;;;5.15;3.80;;;11.70;59.90;;;;;;4953994;29;20094;-77
2022/05/02 07:02:16;;;;;;;5.28;3.80;;;11.80;60.00;;;;;;4953476;29;20051;-76
2022/05/02 07:04:52;;;;;;;5.47;4.05;;;11.80;60.00;;;;;;4953506;29;20172;-76
2022/05/02 07:07:46;;;;;;;6.00;4.13;;;11.80;60.00;;;;;;4954302;29;20043;-77
2022/05/02 07:10:49;;;;;;;5.47;3.78;;;11.80;60.00;;;;;;4954815;28;20039;-76
2022/05/02 07:13:33;;;;;;;5.30;4.00;;;11.80;60.10;;;;;;4911907;29;20491;-77
2022/05/02 07:16:08;;;;;;;4.85;3.85;;;11.90;60.00;;;;;;4941193;29;20059;-77
2022/05/02 07:18:54;;;;;;;4.72;3.58;;;11.90;60.10;;;;;;4957878;29;20039;-77
2022/05/02 07:21:23;;;;;;;4.65;3.70;;;11.90;60.10;;;;;;4957862;29;20031;-77
2022/05/02 07:24:14;;;;;;;4.97;3.63;;;11.90;60.00;;;;;;4957288;29;20032;-77
2022/05/02 07:26:45;;;;;;;5.60;4.03;;;12.00;60.20;;;;;;4941463;29;20042;-77
2022/05/02 07:29:13;;;;;;;4.88;3.70;;;12.00;60.10;;;;;;4941466;29;20043;-77
2022/05/02 07:31:39;;;;;;;5.70;3.97;;;12.00;60.10;;;;;;4957060;29;20559;-76
2022/05/02 07:34:06;;;;;;;5.95;4.00;;;12.00;60.10;;;;;;4941329;29;20027;-76
2022/05/02 07:36:35;;;;;;;5.05;4.10;;;12.10;60.10;;;;;;4957442;29;20160;-77
2022/05/02 07:39:06;;;;;;;5.47;4.07;;;12.10;60.10;;;;;;4941065;29;20031;-77
2022/05/02 07:41:35;;;;;;;5.13;3.78;;;12.10;60.10;;;;;;4957696;29;20372;-79
2022/05/02 07:44:12;;;;;;;5.90;4.22;;;12.10;60.10;;;;;;4958190;28;20083;-78
2022/05/02 07:46:39;;;;;;;7.10;3.90;;;12.20;60.20;;;;;;4942234;29;20034;-77
2022/05/02 07:49:06;;;;;;;4.50;3.55;;;12.20;60.10;;;;;;4958072;28;20035;-77
2022/05/02 07:51:33;;;;;;;5.15;3.47;;;12.30;60.10;;;;;;4940833;29;20042;-79
2022/05/02 07:54:00;;;;;;;5.53;4.10;;;12.30;60.10;;;;;;4940860;29;20039;-77
2022/05/02 07:56:32;;;;;;;5.50;4.07;;;12.30;60.10;;;;;;4940568;29;20511;-77
2022/05/02 07:58:59;;;;;;;4.93;3.58;;;12.40;60.10;;;;;;4956535;29;20044;-77
2022/05/02 08:01:26;;;;;;;5.50;4.15;;;12.40;60.00;;;;;;4956388;29;20027;-76
2022/05/02 08:03:53;;;;;;;5.20;3.72;;;12.40;60.00;;;;;;4940279;29;20042;-77
2022/05/02 08:06:40;;;;;;;4.82;3.67;;;12.50;60.00;;;;;;4956523;29;20475;-78
2022/05/02 08:09:37;;;;;;;5.40;4.13;;;12.60;60.10;;;;;;4956083;29;20463;-78
2022/05/02 08:12:30;;;;;;;4.90;3.67;;;12.60;60.00;;;;;;4940617;29;20396;-77
2022/05/02 08:15:20;;;;;;;4.72;3.70;;;12.70;60.00;;;;;;4956251;29;20043;-77
2022/05/02 08:18:11;;;;;;;5.13;3.70;;;12.80;60.00;;;;;;4956166;29;20048;-76
2022/05/02 08:20:50;;;;;;;4.90;3.83;;;12.80;59.90;;;;;;4957525;28;20448;-77
2022/05/02 08:29:41;;;;;;;4.53;3.38;;;13.10;59.90;;;;;;4957619;29;20130;-77
2022/05/02 08:32:12;;;;;;;4.60;3.40;;;13.20;59.70;;;;;;4957234;29;20117;-77
2022/05/02 08:34:41;;;;;;;4.95;3.67;;;13.20;59.70;;;;;;4956439;29;20086;-77
2022/05/02 08:37:27;;;;;;;4.57;3.38;;;13.30;59.70;;;;;;4957511;29;20460;-77
2022/05/02 08:40:05;;;;;;;5.88;4.20;;;13.40;59.80;;;;;;4955480;29;20082;-76
2022/05/02 08:42:33;;;;;;;5.13;3.72;;;13.50;59.70;;;;;;4956719;29;20063;-77
2022/05/02 08:45:24;;;;;;;4.82;3.78;;;13.60;59.60;;;;;;4956035;29;20063;-77
2022/05/02 08:48:27;;;;;;;5.38;4.00;;;13.70;59.60;;;;;;4956492;29;20069;-76
2022/05/02 08:51:18;;;;;;;4.43;3.30;;;13.80;59.70;;;;;;4955479;29;20042;-77
2022/05/02 08:54:01;;;;;;;5.82;4.00;;;13.90;59.50;;;;;;4955378;29;20035;-77
2022/05/02 08:56:36;;;;;;;4.80;3.55;;;14.00;59.40;;;;;;4956173;29;20023;-77
2022/05/02 08:59:34;;;;;;;4.57;3.50;;;14.10;59.40;;;;;;4955327;29;20035;-78
2022/05/02 09:02:37;;;;;;;5.55;3.40;;;14.20;59.30;;;;;;4873081;28;20037;-76
2022/05/02 09:05:26;;;;;;;3.90;3.08;;;14.30;59.30;;;;;;4939688;29;20379;-77
2022/05/02 09:08:29;;;;;;;4.22;3.10;;;14.40;59.20;;;;;;4939840;29;20058;-76
2022/05/02 09:11:10;;;;;;;5.47;3.80;;;14.50;59.30;;;;;;4938949;29;20460;-76
2022/05/02 09:14:08;;;;;;;5.40;3.58;;;14.70;59.30;;;;;;4957379;29;20035;-76
2022/05/02 09:16:53;;;;;;;5.03;3.47;;;14.70;59.30;;;;;;4923870;29;20112;-77
2022/05/02 09:19:37;;;;;;;5.45;3.53;;;14.90;59.20;;;;;;4957300;29;20062;-77
2022/05/02 09:22:30;;;;;;;4.93;3.72;;;15.00;59.30;;;;;;4956947;29;20031;-78
2022/05/02 09:25:05;;;;;;;4.90;3.58;;;15.10;59.30;;;;;;4956159;28;20498;-78
2022/05/02 09:28:00;;;;;;;4.90;3.70;;;15.20;59.20;;;;;;4957082;28;20138;-77
2022/05/02 09:31:00;;;;;;;4.28;3.33;;;15.30;59.20;;;;;;4955233;29;20034;-79
2022/05/02 09:34:03;;;;;;;5.43;3.75;;;15.40;59.20;;;;;;4955021;28;20046;-77
2022/05/02 09:36:40;;;;;;;5.30;3.70;;;15.60;59.10;;;;;;4956325;29;20545;-77
2022/05/02 09:39:22;;;;;;;4.63;3.65;;;15.70;59.00;;;;;;4954750;29;20059;-76
2022/05/02 09:42:27;;;;;;;5.03;3.75;;;15.80;59.10;;;;;;4955122;29;20039;-77
2022/05/02 09:51:15;;;;;;;5.82;3.67;;;16.20;59.10;;;;;;4954460;29;20506;-78
2022/05/02 09:54:00;;;;;;;3.97;3.38;;;16.30;59.00;;;;;;4955050;29;20035;-80
2022/05/02 09:56:38;;;;;;;5.22;3.75;;;16.40;59.10;;;;;;4954767;29;20050;-77
2022/05/02 09:59:28;;;;;;;5.25;3.88;;;16.60;59.00;;;;;;4939141;29;20042;-76
2022/05/02 10:02:21;;;;;;;4.65;3.47;;;16.70;59.10;;;;;;4955104;29;20441;-77
2022/05/02 10:05:03;;;;;;;5.35;3.63;;;16.80;59.00;;;;;;4938987;29;20041;-78
2022/05/02 10:07:29;;;;;;;5.07;3.55;;;16.90;58.90;;;;;;4954422;29;20119;-78
2022/05/02 10:10:07;;;;;;;5.05;3.80;;;17.00;58.80;;;;;;4953766;29;20063;-77
2022/05/02 10:12:48;;;;;;;5.45;3.95;;;17.10;58.90;;;;;;4955149;28;20069;-77
2022/05/02 10:15:38;;;;;;;4.78;3.50;;;17.30;58.90;;;;;;4954275;29;20134;-75
2022/05/02 10:18:36;;;;;;;5.05;3.65;;;17.40;58.80;;;;;;4955497;28;20105;-79
2022/05/02 10:21:17;;;;;;;6.10;3.80;;;17.50;58.60;;;;;;4954031;29;20028;-77
2022/05/02 10:24:01;;;;;;;5.82;4.00;;;17.70;58.50;;;;;;4955383;29;20035;-77
2022/05/02 10:26:32;;;;;;;4.95;3.65;;;17.80;58.30;;;;;;4955727;28;20431;-78
2022/05/02 10:29:32;;;;;;;4.95;3.55;;;17.90;58.20;;;;;;4937976;29;20468;-76
2022/05/02 10:32:02;;;;;;;4.88;3.42;;;18.00;58.20;;;;;;4954923;28;20027;-77
2022/05/02 10:34:31;;;;;;;5.35;3.72;;;18.10;58.10;;;;;;4954965;29;20035;-76
2022/05/02 10:37:01;;;;;;;4.43;3.42;;;18.20;58.10;;;;;;4955360;29;20498;-75
2022/05/02 10:39:47;;;;;;;5.22;3.78;;;18.30;58.10;;;;;;4954906;28;20472;-77
2022/05/02 10:42:17;;;;;;;4.85;3.83;;;18.40;58.00;;;;;;4953591;29;20040;-76
2022/05/02 10:44:49;;;;;;;4.47;3.65;;;18.60;58.00;;;;;;4937578;29;20097;-76
2022/05/02 10:47:19;;;;;;;4.93;3.60;;;18.70;58.00;;;;;;4953764;29;20031;-77
2022/05/02 10:50:02;;;;;;;4.88;3.70;;;18.80;57.80;;;;;;4953744;29;20094;-75
2022/05/02 10:52:46;;;;;;;5.05;3.80;;;18.90;57.70;;;;;;4954542;29;20035;-75
2022/05/02 10:55:25;;;;;;;5.95;3.83;;;19.00;57.60;;;;;;4953938;29;20054;-76
2022/05/02 10:57:58;;;;;;;5.38;3.92;;;19.10;57.80;;;;;;4954937;29;20043;-75
2022/05/02 11:00:23;;;;;;;5.15;3.72;;;19.20;57.70;;;;;;4955200;28;20150;-76
2022/05/02 11:03:13;;;;;;;5.57;4.25;;;19.30;57.50;;;;;;4954892;28;20114;-76
2022/05/02 11:06:02;;;;;;;4.80;3.70;;;19.40;57.60;;;;;;4954328;29;20086;-74
2022/05/02 11:08:50;;;;;;;4.82;3.53;;;19.50;57.50;;;;;;4954601;29;20036;-77
2022/05/02 11:11:46;;;;;;;5.13;3.55;;;19.60;57.60;;;;;;4955029;28;20036;-76
2022/05/02 11:14:30;;;;;;;4.68;3.15;;;19.70;57.70;;;;;;4947305;29;20043;-76
2022/05/02 11:17:03;;;;;;;4.50;3.50;;;19.80;57.60;;;;;;4954651;29;20484;-76
2022/05/02 11:23:28;;;;;;;4.45;3.47;;;20.00;57.80;;;;;;4924475;29;20044;-76
2022/05/02 11:26:27;;;;;;;4.70;3.45;;;20.10;57.70;;;;;;4954373;28;20039;-79
2022/05/02 11:29:00;;;;;;;4.30;3.33;;;20.20;57.70;;;;;;4953437;29;20043;-76
2022/05/02 11:31:57;;;;;;;5.18;3.70;;;20.20;57.70;;;;;;4954697;28;20051;-76
2022/05/02 11:34:34;;;;;;;4.88;3.70;;;20.30;57.70;;;;;;4954345;28;20479;-76
2022/05/02 11:37:01;;;;;;;5.32;4.00;;;20.40;57.50;;;;;;4953510;29;20082;-76
2022/05/02 11:39:48;;;;;;;4.72;3.60;;;20.50;57.40;;;;;;4937548;29;20077;-77
2022/05/02 11:42:15;;;;;;;4.97;3.78;;;20.60;57.50;;;;;;4953529;29;20032;-77
2022/05/02 11:45:01;;;;;;;5.40;3.90;;;20.60;57.40;;;;;;4953484;29;20035;-76
2022/05/02 11:47:48;;;;;;;5.65;4.32;;;20.70;57.60;;;;;;4953601;29;20027;-77
2022/05/02 11:50:18;;;;;;;5.05;4.13;;;20.70;57.60;;;;;;4954420;28;20098;-75
2022/05/02 11:52:54;;;;;;;6.25;4.63;;;20.80;56.80;;;;;;4953155;29;20074;-74
2022/05/02 11:55:31;;;;;;;5.18;4.40;;;20.90;55.50;;;;;;4953237;29;20043;-75
2022/05/02 11:58:05;;;;;;;5.68;4.53;;;20.90;54.40;;;;;;4956420;28;20040;-74
2022/05/02 12:00:34;;;;;;;6.50;5.15;;;20.90;53.50;;;;;;4940432;29;20046;-74
2022/05/02 12:03:16;;;;;;;6.32;5.22;;;20.90;52.80;;;;;;4940473;29;20034;-75
2022/05/02 12:05:48;;;;;;;7.22;5.32;;;20.90;52.30;;;;;;4957005;29;20478;-74
2022/05/02 12:08:31;;;;;;;7.32;4.88;;;20.90;52.10;;;;;;4956238;29;20051;-74
2022/05/02 12:11:04;;;;;;;6.05;4.78;;;20.90;51.70;;;;;;4956597;29;20392;-75
2022/05/02 12:13:35;;;;;;;7.35;5.35;;;21.00;51.50;;;;;;4940357;29;20046;-76
2022/05/02 12:16:09;;;;;;;5.82;4.85;;;21.00;51.00;;;;;;4956290;29;20063;-75
2022/05/02 12:18:42;;;;;;;7.07;5.03;;;21.00;50.70;;;;;;4956422;29;20063;-76
2022/05/02 12:21:15;;;;;;;5.78;4.70;;;21.00;50.50;;;;;;4957023;29;20036;-75
2022/05/02 12:23:42;;;;;;;6.72;5.32;;;21.00;50.30;;;;;;4956531;29;20447;-76
2022/05/02 12:26:20;;;;;;;6.72;5.10;;;21.00;50.20;;;;;;4957847;28;20055;-76
2022/05/02 12:28:51;;;;;;;6.35;5.05;;;21.00;49.80;;;;;;4956098;29;20028;-75
2022/05/02 12:31:28;;;;;;;6.10;4.95;;;21.10;49.60;;;;;;4956249;29;20031;-75
2022/05/02 12:34:05;;;;;;;6.10;4.82;;;21.10;49.30;;;;;;4940725;29;20043;-76
2022/05/02 12:36:46;;;;;;;6.93;5.20;;;21.10;49.20;;;;;;4957345;28;20039;-74
2022/05/02 12:39:22;;;;;;;6.70;5.13;;;21.10;48.70;;;;;;4957179;29;20463;-76
2022/05/02 12:41:50;;;;;;;7.55;4.95;;;21.10;48.60;;;;;;4956174;29;20039;-75
2022/05/02 12:44:22;;;;;;;6.15;5.18;;;21.20;48.70;;;;;;4956475;29;20034;-76
2022/05/02 12:46:50;;;;;;;7.70;5.70;;;21.20;48.40;;;;;;4940014;29;20048;-76
2022/05/02 12:49:30;;;;;;;5.90;4.93;;;21.20;48.40;;;;;;4939882;29;20077;-75
2022/05/02 12:51:57;;;;;;;6.22;5.00;;;21.30;48.30;;;;;;4940237;29;20095;-74
2022/05/02 12:54:26;;;;;;;5.90;4.75;;;21.30;48.10;;;;;;4939379;29;20102;-74
2022/05/02 13:02:39;;;;;;;5.65;4.63;;;21.40;47.70;;;;;;4955478;29;20039;-74
2022/05/02 13:05:16;;;;;;;6.75;5.18;;;21.40;47.50;;;;;;4940025;29;20027;-74
2022/05/02 13:07:53;;;;;;;6.43;4.85;;;21.40;47.30;;;;;;4939576;29;20031;-74
2022/05/02 13:10:20;;;;;;;6.40;4.78;;;21.50;47.20;;;;;;4956093;28;20031;-76
2022/05/02 13:13:04;;;;;;;5.57;4.22;;;21.50;47.30;;;;;;4956193;28;20031;-74
2022/05/02 13:15:41;;;;;;;5.43;4.25;;;21.50;47.40;;;;;;4955007;29;20102;-74
2022/05/02 13:18:18;;;;;;;5.60;4.30;;;21.60;47.40;;;;;;4939708;29;20137;-73
2022/05/02 13:21:11;;;;;;;5.45;4.30;;;21.60;47.30;;;;;;4954707;29;20030;-74
2022/05/02 13:23:38;;;;;;;7.35;4.35;;;21.70;47.20;;;;;;4956343;28;20531;-76
2022/05/02 13:26:11;;;;;;;5.93;4.47;;;21.70;47.10;;;;;;4938968;29;20074;-76
2022/05/02 13:29:00;;;;;;;5.22;3.92;;;21.70;46.70;;;;;;4955889;29;20046;-76
2022/05/02 13:31:32;;;;;;;5.85;4.63;;;21.80;46.60;;;;;;4938840;29;20039;-76
2022/05/02 13:34:02;;;;;;;5.72;4.75;;;21.80;46.40;;;;;;4956489;28;20035;-80
2022/05/02 13:36:30;;;;;;;6.15;4.53;;;21.80;46.30;;;;;;4938920;29;20035;-79
2022/05/02 13:39:19;;;;;;;6.75;5.10;;;21.80;46.20;;;;;;4956394;28;20032;-80
2022/05/02 13:42:01;;;;;;;6.35;4.82;;;21.80;46.30;;;;;;4954920;29;20472;-78
2022/05/02 13:44:36;;;;;;;6.20;4.68;;;21.90;46.10;;;;;;4956158;28;20027;-79
2022/05/02 13:47:15;;;;;;;6.43;4.97;;;21.80;46.00;;;;;;4939086;29;20054;-78
2022/05/02 13:50:11;;;;;;;5.55;4.20;;;21.90;45.90;;;;;;4938732;29;20117;-78
2022/05/02 13:52:59;;;;;;;5.85;4.55;;;21.80;46.00;;;;;;4938676;29;20036;-78
2022/05/02 13:55:29;;;;;;;5.78;4.25;;;21.80;45.80;;;;;;4955660;29;20043;-78
2022/05/02 13:58:12;;;;;;;5.63;4.38;;;21.80;45.90;;;;;;4954538;29;20035;-79